Hovedside
METAR-TAF:

METAR-TAF

Lufthavner :

Tromsø lufthavn. Langnes

Tromsø, Norge

breddegrad: 69-41N, lengdegrad: 018-55E, høyde over havet: 1 m

Gjeldene værobservasjon

Denne rapporten ble laget for 26 minutter siden, klokken 03:50 UTC
Vind 3 kt fra Øst-sørøst
Temperatur -2°C
Luftfuktighet 93%
Trykk 994 hPa
Sikt 10 km eller mer
ingen skyer under 1500 m og ingen bygeskyer

METAR: ENTC 240350Z 12003KT CAVOK M02/M03 Q0994 RMK WIND 2600FT 19004KT

Tid: 06:16 (04:16 UTC)

Varsel

Varsel gyldig fra 24. klokken 00 UTC til 24. klokken 24 UTC
Vind 8 kt fra skiftende retning
Sikt 10 km eller mer
Få skyer i en høyde av 100 ft

TAF: ENTC 2400/2424 VRB08KT 9999 FEW001

Værobservasjoner og værvarsel for over 4000 flyplasser (METAR- og TAF-rapporter).

Tilgjengelige stasjoner er representert av de røde og gule prikkene på kartet.

Hold musepekeren over prikken for å se navnet på stasjonen.

Klikk så for å se værobservasjoner og -varsler.

For å forandre kartet kan du klikke på den grønne knappen med svart kryss for å zoome inn, på den grønne knappen med strek for å zoome ut, eller på de grønne pilene for å se tilstøtende kart.


METAR-TAF: